普天間 の空港の天気 - METARとTAF

普天間飛行場 ( ROTM / ) - 沖縄県宜野湾市
飛行場実況気象(Metar)
観測時間08/14 14:03 JST (08/14 05:03 UTC)
風向・風速南東 5m/s
視程10km以上
天気現象周辺で雷
全天の4割程度の雲 雲底高度 520m
全天の8割程度の雲 雲底高度 760m
気温31℃
湿度75%
気圧1009.6hPa
METARROTM 140503Z 14010KT 9999 VCTS SCT017 BKN025CB 31/26 A2986 RMK OCNL LTGIC DSNT TS 10W MOV NE CB 10W MOVG NE T1 SET T2 SET SLP096
過去の天気等 Google飛行場航空写真 Wunderground天気予報

過去48時間のMETAR

飛行場予報(TAF)
発表時間: -
14日21時 JST から
風向・風速東 4m/s
視程10km以上
天気現象運行に影響にある天気現象が終了
少しの雲 雲底高度 300m
全天の4割程度の雲 雲底高度 460m
15日5時 JST ~ 15日9時 JST に一時的に
全天の4割程度の雲 雲底高度 300m
全天の8割程度の雲 雲底高度 610m
15日10時 JST から
風向・風速東南東 5m/s
視程10km以上
全天の4割程度の雲 雲底高度 460m
全天の8割程度の雲 雲底高度 910m
TAF AMD ROTM 1404/1503 12012KT 9999 VCTS SCT015 BKN030 QNH2985INS
FM141200 10007KT 9999 NSW FEW010 SCT015 QNH2988INS
TEMPO 1420/1500 SCT010 BKN020
FM150100 12010KT 9999 SCT015 BKN030 QNH2987INS T33/1404Z T28/1414Z AMD 0404Z
日本の空港のMETAR・TAFへのリンク

RJTT 東京国際空港
RJAA 新東京国際空港
RJBB 関西国際空港
RJOO 大阪空港
RJGG 中部国際空港
RJCC 新千歳空港
RJFF 福岡空港
ROAH 那覇空港


RJEC 旭川空港
RJCH 函館空港
RJCK 釧路空港
RJCM 女満別空港
RJCB 帯広空港
RJSA 青森空港
RJSS 仙台空港
RJSK 秋田空港
RJSF 福島空港
RJAH 茨城空港
RJSN 新潟空港
RJNT 富山空港
RJNK 小松飛行場
RJNS 静岡空港
RJOH 美保飛行場
RJOC 出雲空港
RJOB 岡山空港
RJOA 広島空港
RJOI 岩国飛行場
RJOT 高松空港
RJOM 松山空港
RJOK 高知空港
RJFR 北九州空港
RJFT 熊本空港
RJFU 長崎空港
RJFS 佐賀空港
RJFO 大分空港
RJFM 宮崎空港
RJFK 鹿児島空港
ROIG 石垣島空港
RJTY 横田飛行場
ROTM 普天間飛行場
RODN 嘉手納飛行場